Brasília International Airport/President Juscelino Kubitschek

Airport
ICAO code: 
SBBR
IATA Code: 
BSB
Summary
ICAO Region: 
CARSAM
Territory: 
Location: 
Lago Sul, Federal District
Serving: 
Brasilia
Elevation: 
3479 ft
Coordinates: 
Aerial View: 
15° 51' 46.008" S, 47° 54' 46.008" W
Airport RE: 
Hot and High Operations
Metar
Observation
SBBR 261100Z 09006KT CAVOK 17/13 Q1025
Station
Brasilia Aeroporto
Date/Time
2022-05-26 11:00:00
Wind direction
90°
Wind speed
06 kts
Lowest cloud amount
clouds and visibility OK
Temperature
17°C
Dew point
13°C
Humidity
77%
QNH
1025 hPa
Weather condition
n/a

Brasília's International airport.

Climatology

Tropical Savanna climate (Köppen climate classification Aw)

Runways

Designator Length Width Surface Rops
11L/29R 3200 45 ASP Yes/Yes
11R/29L 3300 45 ASP Yes/Yes
Airport map: 
Aerial View: 

Accidents and Serious Incidents at or in the vicinity of SBBR

SKYbrary Partners:

Safety knowledge contributed by: